Alta Lufthavn, Norway

6:31 PM CEST on May 06, 2015 (GMT +0200)
Alta vgs Elektro | | Change Station
CLOSE
Current Station
Personal Weather Station
Location: Alta, FINNMARK
Elevation: 250 ft
Nearby Weather Stations

Elev 250 ft 69.97 °N, 23.30 °E | Updated 0 second ago

Mostly Cloudy
Mostly Cloudy
46.8 °F
Feels Like 43 °F
N
7.8
Wind Variable Wind from North
Gusts 7.8 mph

Today
High -- | Low -- °F
--% Chance of Precip.
Yesterday
High -- | Low -- °F
Precip. -- in
2:29 AM 10:22 PM
Waning Gibbous, 93% visible
Pressure 29.68 in
Visibility 6.2 miles
Clouds Mostly Cloudy 4900 ft
Windchill 43 °F
Dew Point 33 °F
Humidity 58%
Rainfall 0.00 in
Snow Depth Not available.
UV 1 out of 12
Pollen Not available.
Air Quality Not available.
Flu Activity Not available.
METAR ENNA 061620Z 17023KT 9999 BKN049 09/M00 Q1005 RMK

More Conditions Fewer Conditions

Pressure 29.68 in
Visibility 6.2 miles
Clouds Mostly Cloudy 4900 ft
Windchill 43 °F
Dew Point 33 °F
Humidity 58%
Rainfall 0.00 in
Snow Depth Not available.
UV 1 out of 12
Pollen Not available.
Air Quality Not available.
Flu Activity Not available.
METAR ENNA 061620Z 17023KT 9999 BKN049 09/M00 Q1005 RMK

More Conditions Fewer Conditions

10-Day Weather Forecast

Almanac

Astronomy

May. 06, 2015 Rise Set
Actual Time
Civil Twilight
Nautical Twilight
Astronomical Twilight
Moon
Length of Visible Light
Length of Day
Tomorrow will be .
, % of the Moon is Illuminated

Today's Extremes

Country Highs Country Lows

Community

WunderPhotos

Upload Photos

1,818,949 photos uploaded!

WunderBlogs® & News

Nearby

Air Quality

  Air Quality AQ Index Pollutant
Not available.

Snow Depth

Station Depth Elevation

Earthquake Activity

City Distance Mag. Time & Date
Minimum magnitude displayed is 2.5.

Coastal Water Temperatures

Place Temperature

Stations

Nearby Weather Stations

Station Location Temp. Windchill Dew Point Humidity Wind Precip. Elev Updated Type